createdAt,value
2022-08-09T00:00:00.761Z,20.05
2022-08-09T00:02:37.147Z,20.04
2022-08-09T00:06:19.204Z,20.01
2022-08-09T00:07:56.479Z,20.01
2022-08-09T00:10:27.853Z,19.99
2022-08-09T00:12:54.589Z,19.96
2022-08-09T00:15:46.080Z,19.92
2022-08-09T00:18:11.539Z,19.89
2022-08-09T00:20:42.136Z,19.87
2022-08-09T00:23:57.490Z,19.85
2022-08-09T00:26:04.893Z,19.84
2022-08-09T00:28:31.957Z,19.82
2022-08-09T00:31:02.405Z,19.77
2022-08-09T00:33:54.122Z,19.74
2022-08-09T00:36:22.279Z,19.72
2022-08-09T00:38:54.358Z,19.71
2022-08-09T00:44:14.086Z,19.69
2022-08-09T00:44:19.712Z,19.68
2022-08-09T00:47:04.978Z,19.65
2022-08-09T00:49:36.853Z,19.62
2022-08-09T00:52:16.055Z,19.59
2022-08-09T00:54:45.429Z,19.57
2022-08-09T00:57:12.403Z,19.54
2022-08-09T00:59:47.160Z,19.53
2022-08-09T01:02:21.768Z,19.52
2022-08-09T01:05:13.941Z,19.48
2022-08-09T01:08:00.293Z,19.48
2022-08-09T01:10:56.196Z,19.41
2022-08-09T01:13:53.404Z,19.38
2022-08-09T01:16:26.730Z,19.38
2022-08-09T01:19:04.715Z,19.35
2022-08-09T01:21:50.842Z,19.33
2022-08-09T01:24:40.146Z,19.32
2022-08-09T01:27:12.542Z,19.31
2022-08-09T01:29:55.698Z,19.31
2022-08-09T01:32:34.328Z,19.29
2022-08-09T01:35:28.594Z,19.26
2022-08-09T01:38:08.478Z,19.25
2022-08-09T01:40:42.470Z,19.23
2022-08-09T01:43:10.777Z,19.20
2022-08-09T01:45:46.454Z,19.17
2022-08-09T01:48:19.433Z,19.13
2022-08-09T01:50:55.157Z,19.12
2022-08-09T01:53:23.765Z,19.10
2022-08-09T01:55:56.744Z,19.09
2022-08-09T01:58:26.144Z,19.08
2022-08-09T02:00:57.281Z,19.05
2022-08-09T02:03:25.462Z,19.02
2022-08-09T02:06:06.285Z,19.00
2022-08-09T02:08:57.318Z,18.96
2022-08-09T02:11:42.204Z,18.94
2022-08-09T02:14:14.989Z,18.91
2022-08-09T02:16:59.948Z,18.89
2022-08-09T02:19:43.342Z,18.88
2022-08-09T02:22:19.091Z,18.84
2022-08-09T02:24:58.395Z,18.83
2022-08-09T02:27:43.531Z,18.80
2022-08-09T02:30:17.979Z,18.79
2022-08-09T02:32:47.385Z,18.75
2022-08-09T02:35:26.074Z,18.74
2022-08-09T02:38:09.545Z,18.73
2022-08-09T02:40:38.884Z,18.69
2022-08-09T02:43:08.610Z,18.67
2022-08-09T02:45:44.719Z,18.63
2022-08-09T02:48:29.721Z,18.62
2022-08-09T02:51:02.402Z,18.61
2022-08-09T02:53:43.060Z,18.59
2022-08-09T02:56:20.932Z,18.61
2022-08-09T02:58:50.217Z,18.59
2022-08-09T03:01:21.788Z,18.59
2022-08-09T03:04:13.310Z,18.58
2022-08-09T03:06:45.465Z,18.56
2022-08-09T03:09:13.842Z,18.53
2022-08-09T03:12:09.768Z,18.51
2022-08-09T03:14:31.719Z,18.51
2022-08-09T03:17:01.854Z,18.49
2022-08-09T03:19:52.769Z,18.46
2022-08-09T03:22:30.478Z,18.45
2022-08-09T03:25:19.849Z,18.42
2022-08-09T03:27:50.689Z,18.41
2022-08-09T03:30:29.683Z,18.38
2022-08-09T03:33:12.678Z,18.38
2022-08-09T03:36:11.478Z,18.37
2022-08-09T03:38:28.975Z,18.37
2022-08-09T03:40:57.787Z,18.34
2022-08-09T03:43:24.271Z,18.32
2022-08-09T03:46:04.208Z,18.30
2022-08-09T03:48:42.920Z,18.30
2022-08-09T03:51:44.031Z,18.30
2022-08-09T03:54:06.191Z,18.29
2022-08-09T03:56:41.378Z,18.28
2022-08-09T03:59:13.526Z,18.27
2022-08-09T04:01:44.573Z,18.26
2022-08-09T04:04:14.730Z,18.26
2022-08-09T04:06:41.465Z,18.26
2022-08-09T04:09:47.410Z,18.28
2022-08-09T04:12:12.024Z,18.27
2022-08-09T04:15:01.694Z,18.29
2022-08-09T04:17:29.783Z,18.27
2022-08-09T04:19:56.557Z,18.26
2022-08-09T04:22:23.527Z,18.27
2022-08-09T04:24:50.126Z,18.27
2022-08-09T04:27:17.159Z,18.27
2022-08-09T04:29:49.954Z,18.27
2022-08-09T04:32:17.167Z,18.26
2022-08-09T04:35:01.360Z,18.29
2022-08-09T04:37:42.120Z,18.27
2022-08-09T04:40:19.193Z,18.28
2022-08-09T04:42:55.784Z,18.27
2022-08-09T04:45:23.562Z,18.28
2022-08-09T04:48:01.195Z,18.28
2022-08-09T04:50:34.959Z,18.28
2022-08-09T04:53:13.024Z,18.30
2022-08-09T04:55:58.126Z,18.31
2022-08-09T04:58:28.999Z,18.33
2022-08-09T05:00:56.840Z,18.34
2022-08-09T05:03:40.234Z,18.34
2022-08-09T05:06:27.346Z,18.34
2022-08-09T05:09:00.474Z,18.39
2022-08-09T05:11:30.614Z,18.40
2022-08-09T05:14:02.485Z,18.43
2022-08-09T05:16:58.526Z,18.46
2022-08-09T05:19:26.119Z,18.50
2022-08-09T05:21:58.944Z,18.50
2022-08-09T05:24:26.977Z,18.51
2022-08-09T05:26:54.514Z,18.53
2022-08-09T05:29:22.697Z,18.56
2022-08-09T05:31:57.521Z,18.57
2022-08-09T05:34:30.578Z,18.60
2022-08-09T05:37:01.737Z,18.63
2022-08-09T05:39:35.815Z,18.67
2022-08-09T05:42:04.596Z,18.70
2022-08-09T05:44:32.751Z,18.74
2022-08-09T05:47:00.089Z,18.76
2022-08-09T05:50:16.889Z,18.78
2022-08-09T05:52:13.268Z,18.83
2022-08-09T05:54:40.333Z,18.83
2022-08-09T05:57:07.477Z,18.86
2022-08-09T05:59:39.418Z,18.89
2022-08-09T06:02:09.074Z,18.90
2022-08-09T06:04:36.775Z,18.93
2022-08-09T06:07:11.020Z,18.99
2022-08-09T06:10:02.123Z,19.04
2022-08-09T06:12:30.641Z,19.08
2022-08-09T06:15:01.009Z,19.12
2022-08-09T06:17:39.888Z,19.16
2022-08-09T06:20:08.016Z,19.21
2022-08-09T06:22:35.033Z,19.21
2022-08-09T06:25:02.395Z,19.25
2022-08-09T06:27:42.500Z,19.27
2022-08-09T06:30:10.959Z,19.33
2022-08-09T06:32:59.481Z,19.35
2022-08-09T06:35:55.814Z,19.43
2022-08-09T06:38:15.823Z,19.48
2022-08-09T06:40:42.727Z,19.51
2022-08-09T06:43:10.663Z,19.55
2022-08-09T06:46:07.478Z,19.58
2022-08-09T06:48:30.585Z,19.66
2022-08-09T06:50:59.815Z,19.67
2022-08-09T06:53:26.699Z,19.71
2022-08-09T06:55:53.352Z,19.76
2022-08-09T07:00:47.261Z,19.78
2022-08-09T07:01:06.535Z,19.85
2022-08-09T07:03:39.710Z,19.86
2022-08-09T07:06:18.826Z,19.91
2022-08-09T07:08:46.762Z,19.96
2022-08-09T07:11:23.542Z,20.00
2022-08-09T07:14:05.530Z,20.06
2022-08-09T07:16:42.430Z,20.13
2022-08-09T07:19:23.209Z,20.17
2022-08-09T07:21:57.071Z,20.23
2022-08-09T07:24:31.368Z,20.26
2022-08-09T07:27:01.285Z,20.31
2022-08-09T07:29:37.739Z,20.35
2022-08-09T07:32:05.858Z,20.38
2022-08-09T07:34:32.352Z,20.41
2022-08-09T07:37:02.775Z,20.46
2022-08-09T07:39:40.969Z,20.52
2022-08-09T07:42:08.741Z,20.56
2022-08-09T07:44:53.322Z,20.61
2022-08-09T07:47:23.203Z,20.67
2022-08-09T07:50:04.589Z,20.71
2022-08-09T07:52:35.880Z,20.80
2022-08-09T07:55:04.032Z,20.85
2022-08-09T07:57:36.449Z,20.89
2022-08-09T08:00:08.797Z,20.93
2022-08-09T08:02:42.976Z,20.98
2022-08-09T08:05:18.794Z,21.01
2022-08-09T08:08:44.262Z,21.05
2022-08-09T08:10:34.702Z,21.12
2022-08-09T08:13:03.901Z,21.16
2022-08-09T08:15:35.526Z,21.22
2022-08-09T08:18:04.438Z,21.29
2022-08-09T08:20:32.638Z,21.36
2022-08-09T08:23:06.630Z,21.44
2022-08-09T08:25:46.416Z,21.52
2022-08-09T08:28:18.413Z,21.58
2022-08-09T08:30:53.228Z,21.68
2022-08-09T08:33:23.959Z,21.84
2022-08-09T08:36:00.115Z,22.02
2022-08-09T08:38:29.432Z,22.22
2022-08-09T08:40:57.327Z,22.32
2022-08-09T08:43:24.598Z,22.46
2022-08-09T08:46:09.908Z,22.57
2022-08-09T08:48:51.780Z,22.73
2022-08-09T08:51:21.300Z,22.78
2022-08-09T08:54:03.206Z,22.80
2022-08-09T08:56:37.644Z,22.80
2022-08-09T08:59:19.764Z,22.75
2022-08-09T09:01:53.455Z,22.79
2022-08-09T09:04:27.667Z,22.84
2022-08-09T09:06:57.915Z,22.88
2022-08-09T09:09:58.101Z,22.98
2022-08-09T09:12:17.467Z,23.13
2022-08-09T09:14:45.156Z,23.21
2022-08-09T09:17:12.999Z,23.24
2022-08-09T09:19:43.883Z,23.29
2022-08-09T09:22:16.261Z,23.38
2022-08-09T09:24:43.535Z,23.46
2022-08-09T09:28:03.084Z,23.51
2022-08-09T09:30:20.145Z,23.64
2022-08-09T09:33:15.498Z,23.86
2022-08-09T09:36:02.071Z,24.07
2022-08-09T09:38:56.679Z,24.29
2022-08-09T09:41:23.949Z,24.46
2022-08-09T09:44:12.373Z,24.60
2022-08-09T09:46:43.059Z,24.78
2022-08-09T09:49:32.202Z,24.92
2022-08-09T09:52:33.725Z,25.12
2022-08-09T09:55:24.019Z,25.33
2022-08-09T09:58:16.734Z,25.56
2022-08-09T10:00:59.071Z,25.75
2022-08-09T10:03:56.245Z,25.83
2022-08-09T10:06:38.562Z,25.89
2022-08-09T10:09:23.242Z,25.79
2022-08-09T10:12:14.678Z,25.63
2022-08-09T10:14:49.285Z,25.53
2022-08-09T10:17:39.930Z,25.40
2022-08-09T10:20:26.938Z,25.33
2022-08-09T10:23:13.488Z,25.49
2022-08-09T10:26:07.297Z,25.74
2022-08-09T10:28:32.865Z,25.96
2022-08-09T10:34:10.277Z,26.37
2022-08-09T10:36:33.327Z,26.50
2022-08-09T10:39:02.221Z,26.72
2022-08-09T10:41:28.678Z,27.13
2022-08-09T10:44:00.000Z,27.78
2022-08-09T10:47:20.482Z,28.73
2022-08-09T10:50:31.267Z,30.07
2022-08-09T10:53:19.412Z,31.37
2022-08-09T10:55:58.714Z,32.97
2022-08-09T10:58:34.717Z,34.06
2022-08-09T11:03:02.060Z,35.37
2022-08-09T11:04:19.751Z,36.93
2022-08-09T11:07:00.319Z,38.77
2022-08-09T11:09:41.048Z,40.16
2022-08-09T11:12:18.706Z,41.19
2022-08-09T11:14:57.391Z,41.93
2022-08-09T11:17:24.427Z,41.59
2022-08-09T11:20:12.155Z,39.66
2022-08-09T11:22:47.176Z,37.47
2022-08-09T11:25:44.935Z,35.63
2022-08-09T11:28:54.045Z,33.87
2022-08-09T11:31:49.189Z,32.53
2022-08-09T11:34:24.479Z,31.81
2022-08-09T11:36:51.887Z,31.25
2022-08-09T11:39:18.464Z,32.49
2022-08-09T11:41:46.587Z,35.09
2022-08-09T11:44:15.402Z,37.44
2022-08-09T11:46:57.482Z,39.40
2022-08-09T11:50:53.409Z,41.07
2022-08-09T11:53:16.368Z,42.92
2022-08-09T11:55:51.929Z,44.22
2022-08-09T11:58:19.684Z,45.14
2022-08-09T12:01:09.037Z,45.75
2022-08-09T12:03:55.267Z,46.25
2022-08-09T12:06:32.505Z,46.73
2022-08-09T12:09:15.229Z,46.95
2022-08-09T12:12:02.938Z,46.93
2022-08-09T12:14:36.961Z,47.62
2022-08-09T12:17:34.733Z,48.56
2022-08-09T12:20:21.938Z,49.57
2022-08-09T12:22:56.944Z,50.63
2022-08-09T12:25:31.874Z,51.67
2022-08-09T12:28:58.678Z,52.26
2022-08-09T12:31:11.350Z,52.27
2022-08-09T12:33:58.948Z,51.54
2022-08-09T12:36:31.254Z,51.37
2022-08-09T12:38:59.489Z,51.23
2022-08-09T12:41:38.333Z,50.09
2022-08-09T12:44:10.141Z,48.30
2022-08-09T12:46:43.059Z,45.98
2022-08-09T12:49:10.445Z,44.09
2022-08-09T12:52:01.203Z,42.83
2022-08-09T12:54:24.584Z,41.71
2022-08-09T12:56:54.338Z,40.47
2022-08-09T12:59:23.424Z,39.80
2022-08-09T13:01:58.979Z,40.00
2022-08-09T13:04:36.319Z,38.91
2022-08-09T13:07:19.705Z,37.20
2022-08-09T13:09:55.807Z,35.96
2022-08-09T13:12:29.179Z,35.01
2022-08-09T13:15:08.430Z,34.44
2022-08-09T13:18:03.642Z,34.07
2022-08-09T13:20:37.678Z,33.58
2022-08-09T13:24:17.459Z,33.07
2022-08-09T13:26:10.057Z,32.61
2022-08-09T13:28:39.423Z,32.52
2022-08-09T13:32:16.645Z,32.52
2022-08-09T13:33:56.677Z,32.43
2022-08-09T13:36:41.110Z,32.35
2022-08-09T13:41:54.736Z,32.00
2022-08-09T13:42:12.703Z,31.60
2022-08-09T13:44:43.703Z,31.38
2022-08-09T13:47:25.354Z,31.28
2022-08-09T13:50:04.637Z,31.35
2022-08-09T13:52:39.053Z,31.43
2022-08-09T13:55:13.494Z,31.53
2022-08-09T13:57:47.295Z,31.57
2022-08-09T14:00:23.006Z,31.43
2022-08-09T14:03:03.485Z,31.47
2022-08-09T14:06:00.133Z,31.45
2022-08-09T14:08:30.439Z,31.38
2022-08-09T14:10:59.383Z,31.38
2022-08-09T14:14:14.817Z,31.44
2022-08-09T14:16:16.394Z,31.62
2022-08-09T14:18:45.785Z,31.72
2022-08-09T14:21:21.040Z,31.81
2022-08-09T14:23:55.176Z,32.03
2022-08-09T14:26:32.720Z,32.13
2022-08-09T14:29:25.864Z,32.09
2022-08-09T14:31:55.603Z,31.89
2022-08-09T14:34:31.724Z,31.62
2022-08-09T14:37:06.462Z,31.29
2022-08-09T14:39:45.743Z,30.99
2022-08-09T14:42:30.469Z,30.68
2022-08-09T14:46:55.115Z,30.42
2022-08-09T14:47:57.820Z,30.20
2022-08-09T14:50:26.944Z,30.12
2022-08-09T14:52:53.601Z,30.07
2022-08-09T14:55:21.238Z,30.08
2022-08-09T14:57:49.245Z,30.06
2022-08-09T15:00:16.701Z,29.97
2022-08-09T15:02:47.455Z,29.96
2022-08-09T15:05:18.678Z,30.00
2022-08-09T15:07:45.397Z,30.02
2022-08-09T15:10:21.780Z,30.07
2022-08-09T15:12:52.095Z,30.12
2022-08-09T15:15:18.638Z,30.05
2022-08-09T15:17:51.764Z,29.97
2022-08-09T15:21:58.054Z,29.87
2022-08-09T15:23:56.022Z,29.81
2022-08-09T15:25:53.697Z,29.61
2022-08-09T15:28:27.740Z,29.43
2022-08-09T15:31:01.360Z,29.35
2022-08-09T15:34:33.579Z,29.30
2022-08-09T15:36:28.451Z,29.25
2022-08-09T15:38:57.184Z,29.15
2022-08-09T15:41:31.785Z,29.05
2022-08-09T15:44:00.306Z,29.03
2022-08-09T15:46:33.428Z,28.96
2022-08-09T15:49:22.054Z,28.83
2022-08-09T15:52:03.323Z,28.81
2022-08-09T15:54:44.778Z,28.74
2022-08-09T15:57:35.966Z,28.66
2022-08-09T16:00:11.018Z,28.59
2022-08-09T16:02:53.742Z,28.56
2022-08-09T16:05:22.414Z,28.53
2022-08-09T16:07:50.471Z,28.52
2022-08-09T16:10:56.234Z,28.44
2022-08-09T16:13:04.806Z,28.38
2022-08-09T16:16:04.454Z,28.32
2022-08-09T16:18:32.295Z,28.27
2022-08-09T16:20:59.193Z,28.22
2022-08-09T16:23:26.379Z,28.17
2022-08-09T16:25:54.683Z,28.07
2022-08-09T16:28:28.999Z,27.90
2022-08-09T16:30:58.980Z,27.71
2022-08-09T16:33:26.661Z,27.56
2022-08-09T16:35:58.422Z,27.48
2022-08-09T16:38:27.425Z,27.40
2022-08-09T16:40:54.022Z,27.31
2022-08-09T16:43:22.247Z,27.28
2022-08-09T16:45:53.511Z,27.28
2022-08-09T16:48:50.483Z,27.24
2022-08-09T16:51:14.370Z,27.17
2022-08-09T16:54:08.875Z,27.11
2022-08-09T16:56:31.639Z,27.11
2022-08-09T16:58:59.334Z,27.08
2022-08-09T17:01:28.164Z,27.02
2022-08-09T17:04:00.210Z,26.99
2022-08-09T17:06:29.380Z,26.96
2022-08-09T17:09:11.821Z,26.95
2022-08-09T17:11:51.398Z,26.88
2022-08-09T17:14:27.377Z,26.82
2022-08-09T17:16:56.965Z,26.77
2022-08-09T17:19:27.617Z,26.75
2022-08-09T17:22:14.228Z,26.70
2022-08-09T17:24:41.495Z,26.60
2022-08-09T17:27:15.125Z,26.57
2022-08-09T17:29:45.540Z,26.53
2022-08-09T17:32:15.857Z,26.52
2022-08-09T17:35:07.302Z,26.48
2022-08-09T17:38:12.577Z,26.43
2022-08-09T17:40:21.774Z,26.39
2022-08-09T17:42:55.743Z,26.36
2022-08-09T17:45:37.431Z,26.29
2022-08-09T17:48:12.346Z,26.24
2022-08-09T17:50:38.727Z,26.18
2022-08-09T17:53:19.719Z,26.16
2022-08-09T17:55:51.976Z,26.16
2022-08-09T17:58:26.791Z,26.12
2022-08-09T18:00:56.638Z,26.08
2022-08-09T18:03:24.943Z,26.03
2022-08-09T18:05:53.261Z,25.99
2022-08-09T18:08:21.849Z,25.92
2022-08-09T18:11:00.999Z,25.88
2022-08-09T18:13:43.000Z,25.83
2022-08-09T18:16:16.382Z,25.79
2022-08-09T18:18:49.186Z,25.76
2022-08-09T18:21:23.038Z,25.72
2022-08-09T18:24:12.605Z,25.69
2022-08-09T18:26:38.117Z,25.67
2022-08-09T18:30:35.188Z,25.62
2022-08-09T18:31:55.635Z,25.57
2022-08-09T18:34:23.873Z,25.53
2022-08-09T18:36:50.910Z,25.47
2022-08-09T18:39:22.252Z,25.44
2022-08-09T18:41:52.969Z,25.40
2022-08-09T18:44:22.908Z,25.35
2022-08-09T18:47:04.956Z,25.31
2022-08-09T18:49:41.479Z,25.27
2022-08-09T18:52:11.708Z,25.20
2022-08-09T18:54:39.265Z,25.15
2022-08-09T18:57:15.412Z,25.10
2022-08-09T18:59:49.156Z,25.06
2022-08-09T19:02:30.407Z,25.02
2022-08-09T19:05:14.453Z,24.99
2022-08-09T19:07:59.100Z,24.96
2022-08-09T19:10:36.948Z,24.92
2022-08-09T19:13:23.457Z,24.87
2022-08-09T19:15:56.285Z,24.85
2022-08-09T19:18:36.317Z,24.79
2022-08-09T19:21:09.771Z,24.77
2022-08-09T19:24:32.870Z,24.72
2022-08-09T19:26:34.923Z,24.65
2022-08-09T19:29:15.175Z,24.60
2022-08-09T19:31:45.627Z,24.57
2022-08-09T19:34:21.409Z,24.52
2022-08-09T19:36:53.748Z,24.46
2022-08-09T19:39:29.091Z,24.44
2022-08-09T19:42:08.255Z,24.40
2022-08-09T19:44:35.324Z,24.37
2022-08-09T19:47:02.658Z,24.32
2022-08-09T19:50:09.217Z,24.30
2022-08-09T19:52:18.308Z,24.30
2022-08-09T19:54:44.990Z,24.27
2022-08-09T19:57:11.394Z,24.24
2022-08-09T19:59:58.858Z,24.19
2022-08-09T20:04:11.676Z,24.16
2022-08-09T20:05:14.850Z,24.10
2022-08-09T20:07:59.760Z,24.06
2022-08-09T20:10:36.588Z,24.05
2022-08-09T20:13:05.516Z,24.01
2022-08-09T20:16:38.492Z,23.96
2022-08-09T20:18:19.730Z,23.94
2022-08-09T20:20:47.085Z,23.87
2022-08-09T20:23:13.581Z,23.80
2022-08-09T20:25:52.868Z,23.75
2022-08-09T20:28:27.803Z,23.72
2022-08-09T20:31:04.881Z,23.66
2022-08-09T20:33:39.287Z,23.62
2022-08-09T20:36:10.800Z,23.59
2022-08-09T20:41:32.150Z,23.49
2022-08-09T20:44:02.558Z,23.45
2022-08-09T20:46:33.845Z,23.40
2022-08-09T20:49:10.340Z,23.35
2022-08-09T20:51:41.195Z,23.29
2022-08-09T20:54:12.752Z,23.24
2022-08-09T20:56:47.320Z,23.21
2022-08-09T20:59:17.692Z,23.18
2022-08-09T21:01:53.726Z,23.17
2022-08-09T21:05:51.660Z,23.11
2022-08-09T21:07:11.273Z,23.06
2022-08-09T21:09:56.808Z,23.02
2022-08-09T21:15:14.025Z,22.96
2022-08-09T21:18:23.417Z,22.92
2022-08-09T21:20:29.812Z,22.90
2022-08-09T21:22:57.450Z,22.86
2022-08-09T21:25:44.040Z,22.82
2022-08-09T21:28:34.247Z,22.78
2022-08-09T21:31:16.269Z,22.72
2022-08-09T21:33:46.151Z,22.68
2022-08-09T21:36:17.609Z,22.65
2022-08-09T21:38:45.454Z,22.62
2022-08-09T21:41:17.714Z,22.59
2022-08-09T21:43:56.269Z,22.55
2022-08-09T21:46:24.849Z,22.52
2022-08-09T21:48:52.304Z,22.49
2022-08-09T21:51:24.554Z,22.46
2022-08-09T21:54:03.367Z,22.45
2022-08-09T21:56:42.771Z,22.40
2022-08-09T22:01:59.220Z,22.31
2022-08-09T22:04:23.185Z,22.29
2022-08-09T22:07:09.907Z,22.26
2022-08-09T22:09:38.686Z,22.22
2022-08-09T22:12:18.339Z,22.16
2022-08-09T22:14:45.874Z,22.13
2022-08-09T22:17:13.303Z,22.10
2022-08-09T22:19:58.416Z,22.07
2022-08-09T22:22:26.496Z,22.03
2022-08-09T22:26:03.912Z,21.98
2022-08-09T22:27:39.436Z,21.97
2022-08-09T22:30:07.626Z,21.92
2022-08-09T22:32:34.655Z,21.90
2022-08-09T22:35:06.061Z,21.87
2022-08-09T22:37:35.721Z,21.83
2022-08-09T22:40:08.370Z,21.79
2022-08-09T22:42:34.979Z,21.77
2022-08-09T22:48:06.177Z,21.74
2022-08-09T22:48:12.119Z,21.71
2022-08-09T22:50:34.551Z,21.69
2022-08-09T22:53:03.520Z,21.67
2022-08-09T22:56:06.150Z,21.63
2022-08-09T22:58:30.575Z,21.62
2022-08-09T23:01:02.116Z,21.57
2022-08-09T23:04:02.562Z,21.54
2022-08-09T23:06:32.737Z,21.51
2022-08-09T23:09:03.895Z,21.49
2022-08-09T23:11:30.331Z,21.46
2022-08-09T23:13:56.783Z,21.42
2022-08-09T23:16:23.460Z,21.39
2022-08-09T23:18:49.971Z,21.36
2022-08-09T23:21:24.564Z,21.33
2022-08-09T23:24:05.646Z,21.29
2022-08-09T23:26:35.462Z,21.27
2022-08-09T23:29:01.957Z,21.23
2022-08-09T23:31:28.387Z,21.20
2022-08-09T23:33:54.867Z,21.16
2022-08-09T23:36:21.510Z,21.11
2022-08-09T23:38:49.185Z,21.09
2022-08-09T23:41:29.120Z,21.09
2022-08-09T23:44:00.668Z,21.08
2022-08-09T23:46:28.875Z,21.06
2022-08-09T23:48:55.756Z,21.04
2022-08-09T23:51:22.336Z,21.02
2022-08-09T23:53:50.375Z,21.00
2022-08-09T23:56:19.302Z,20.99
2022-08-09T23:59:05.569Z,20.98
